Cochecton, NY (12726)

12:35 AM EST on February 12, 2016 (GMT -0500)
Sullivan County International | | Change Station
CLOSE
Current Station
Airport
Location: Monticello,
Elevation: 1404 ft
Nearby Weather Stations
Active Advisory: Wind Chill Watch

Elev 1404 ft 41.70 °N, 74.80 °W | Updated 20 minutes ago

Mostly Cloudy
Mostly Cloudy
9 °F
Feels Like -6 °F
N
10
Wind Variable Wind from West
Gusts 16 mph

Today
High -- | Low -- °F
--% Chance of Precip.
Yesterday
High -- | Low -- °F
Precip. -- in
Pressure 30.07 in
Visibility 10.0 miles
Clouds Mostly Cloudy 2800 ft
Windchill -6 °F
Dew Point 0 °F
Humidity 67%
Rainfall 0.00 in
Snow Depth Not available.
6:59 AM 5:28 PM
Waxing Crescent, 17% visible
METAR KMSV 120515Z AUTO 28009G14KT 10SM BKN028 M13/M18 A3007 RMK AO1
Pressure 30.07 in
Visibility 10.0 miles
Clouds Mostly Cloudy 2800 ft
Windchill -6 °F
Dew Point 0 °F
Humidity 67%
Rainfall 0.00 in
Snow Depth Not available.
6:59 AM 5:28 PM
Waxing Crescent, 17% visible
METAR KMSV 120515Z AUTO 28009G14KT 10SM BKN028 M13/M18 A3007 RMK AO1

10-Day Weather Forecast

Almanac

Astronomy

Feb. 12, 2016 Rise Set
Actual Time
Civil Twilight
Nautical Twilight
Astronomical Twilight
Moon
Length of Visible Light
Length of Day
Tomorrow will be .
, % of the Moon is Illuminated

Today's Extremes

State Highs State Lows

Community

WunderPhotos

Upload Photos

1,892,268 photos uploaded!

WunderBlog® & News

Nearby

Air Quality

  Air Quality AQ Index Pollutant
Not available.

Snow Depth

Station Depth Elevation

Earthquake Activity

City Distance Mag. Time & Date
Minimum magnitude displayed is 2.5.

Coastal Water Temperatures

Place Temperature

Stations

Nearby Weather Stations

Station Location Temp. Windchill Dew Point Humidity Wind Precip. Elev Updated Type
                   

Watches & Warnings

Wind Chill Watch
Issued: 7:18 PM EST Feb. 11, 2016 – National Weather Service

... Wind chill watch remains in effect from Saturday afternoon
through Sunday afternoon...

* locations... northeast pennsyvlania and Sullivan County New York.

* Hazard types... bitterly cold wind chills.

* Timing... coldest Saturday night into Sunday.

* Wind chill... wind chills as low as 25 below.

* Winds... northwest 10 to 20 with gusts to 35 mph.

* Temperatures... falling to zero to 10 below Saturday night.


Precautionary/preparedness actions...

A wind chill watch means the there is the potential for a
combination of very cold air and strong winds to create
dangerously low wind chill values. Monitor the latest forecasts
and warnings for updates on this situation.